Nikep, Maryland
Current Conditions -  °F | °C
As of 8:08 AM on Tuesday 21 Oct 2014 (Local Time) from KCBE Reporting Station
Broken Clouds Broken Clouds  
Wind Chill: 46°   Ceiling: 6000
Heat Index: 46°   Visibility: 5mi
Dew Point: 46°   Wind: 0mph
Humidity: 100%   Direction: NA
Pressure: 29.92"   Gusts: NA
Location:  39.5506°N, 78.9975°W
Report Text: KCBE 211208Z AUTO 00000KT 5SM SCT001 SCT029 BKN060 08/08 A2992 RMK AO1
Loading
Personal Weather Stations






























Interactive Weather Map
Tropical Storm Tracking
New forecast layout! Learn more

10-Day Weather Forecast

Advertisements
Track Severe Weather on mobile